KGDJ

Granbury Regional Airport

Granbury, Texas, USA
METAR KGDJ 202015Z AUTO 33004KT 10SM CLR 34/17 A3001 RMK AO2 T03350166
Observed Flight Rules
Aug-20 @ 20:15 UTC (15 minutes ago) Visual Flight Rules
Wind Visibility Clouds
330° at 4 knots 10 miles
  • Clear skies
Temperatures Readings
Current 34°C / 93°F
Dewpoint 17°C / 63°F
Humidity 36%
Altimeter 30.01" Hg
Pressure 1016 hPa
Elevation 237
METAR KGDJ 202015Z AUTO 33004KT 10SM CLR 34/17 A3001 RMK AO2 T03350166
Observed Flight Rules
Aug-20 @ 20:15 UTC
(15 minutes ago)
VFR
Wind Visibility
330° at 4 knots 10 miles
Clouds
  • Clear skies
Temperature Dewpoint
34°C / 93°F 17°C / 63°F
Humidity Altimeter Pressure
36% 30.01" Hg 1016 hPa